createdAt,value
2017-04-05T00:00:06.500Z,925.93
2017-04-05T00:01:18.143Z,925.94
2017-04-05T00:01:46.523Z,925.95
2017-04-05T00:02:14.786Z,925.95
2017-04-05T00:02:43.278Z,925.94
2017-04-05T00:03:11.594Z,925.94
2017-04-05T00:03:40.312Z,925.9
2017-04-05T00:04:08.844Z,925.93
2017-04-05T00:04:37.382Z,925.97
2017-04-05T00:05:05.835Z,925.9
2017-04-05T00:05:34.255Z,925.91
2017-04-05T00:06:02.757Z,925.91
2017-04-05T00:07:14.198Z,925.93
2017-04-05T00:07:42.593Z,925.96
2017-04-05T00:08:11.136Z,925.94
2017-04-05T00:08:39.603Z,925.96
2017-04-05T00:09:07.720Z,925.95
2017-04-05T00:09:36.449Z,925.91
2017-04-05T00:10:04.989Z,925.95
2017-04-05T00:10:33.533Z,925.93
2017-04-05T00:11:01.956Z,925.98
2017-04-05T00:11:30.375Z,925.98
2017-04-05T00:11:58.908Z,925.95
2017-04-05T00:13:10.401Z,925.96
2017-04-05T00:13:38.852Z,925.92
2017-04-05T00:14:07.015Z,925.94
2017-04-05T00:14:35.956Z,925.98
2017-04-05T00:15:04.359Z,925.98
2017-04-05T00:15:32.759Z,925.97
2017-04-05T00:16:01.137Z,925.97
2017-04-05T00:16:29.485Z,925.97
2017-04-05T00:16:58.045Z,925.97
2017-04-05T00:17:26.408Z,925.99
2017-04-05T00:17:54.463Z,925.98
2017-04-05T00:19:06.414Z,925.97
2017-04-05T00:19:34.829Z,925.97
2017-04-05T00:20:03.263Z,925.98
2017-04-05T00:20:31.659Z,925.95
2017-04-05T00:21:00.126Z,925.98
2017-04-05T00:21:28.607Z,925.98
2017-04-05T00:21:56.933Z,925.96
2017-04-05T00:22:25.253Z,925.95
2017-04-05T00:22:53.523Z,925.95
2017-04-05T00:23:21.706Z,925.9
2017-04-05T00:23:50.040Z,925.92
2017-04-05T00:25:01.595Z,925.9
2017-04-05T00:25:29.996Z,925.92
2017-04-05T00:25:58.405Z,925.93
2017-04-05T00:26:26.796Z,925.88
2017-04-05T00:26:55.145Z,925.88
2017-04-05T00:27:23.641Z,925.89
2017-04-05T00:27:51.976Z,925.87
2017-04-05T00:28:20.308Z,925.88
2017-04-05T00:28:48.697Z,925.87
2017-04-05T00:29:17.048Z,925.88
2017-04-05T00:29:45.510Z,925.88
2017-04-05T00:30:57.442Z,925.9
2017-04-05T00:31:25.820Z,925.89
2017-04-05T00:31:54.151Z,925.89
2017-04-05T00:32:22.537Z,925.86
2017-04-05T00:32:50.857Z,925.86
2017-04-05T00:33:19.456Z,925.87
2017-04-05T00:33:47.902Z,925.9
2017-04-05T00:34:16.249Z,925.89
2017-04-05T00:34:44.601Z,925.87
2017-04-05T00:35:13.058Z,925.91
2017-04-05T00:35:41.425Z,925.91
2017-04-05T00:36:52.927Z,925.91
2017-04-05T00:37:21.217Z,925.89
2017-04-05T00:37:49.901Z,925.9
2017-04-05T00:38:18.283Z,925.96
2017-04-05T00:38:46.622Z,925.9
2017-04-05T00:39:15.162Z,925.87
2017-04-05T00:39:43.467Z,925.9
2017-04-05T00:40:11.753Z,925.89
2017-04-05T00:40:40.111Z,925.89
2017-04-05T00:41:08.468Z,925.93
2017-04-05T00:41:36.701Z,925.89
2017-04-05T00:42:48.185Z,925.9
2017-04-05T00:43:16.567Z,925.93
2017-04-05T00:43:44.987Z,925.89
2017-04-05T00:44:13.367Z,925.9
2017-04-05T00:44:41.599Z,925.93
2017-04-05T00:45:09.979Z,925.88
2017-04-05T00:45:38.330Z,925.88
2017-04-05T00:46:06.869Z,925.88
2017-04-05T00:46:35.250Z,925.81
2017-04-05T00:47:03.690Z,925.82
2017-04-05T00:47:32.029Z,925.84
2017-04-05T00:48:43.537Z,925.83
2017-04-05T00:49:11.845Z,925.8
2017-04-05T00:49:40.182Z,925.82
2017-04-05T00:50:08.506Z,925.8
2017-04-05T00:50:36.794Z,925.81
2017-04-05T00:51:05.357Z,925.82
2017-04-05T00:51:33.623Z,925.83
2017-04-05T00:52:02.075Z,925.81
2017-04-05T00:52:30.528Z,925.84
2017-04-05T00:52:58.895Z,925.82
2017-04-05T00:53:27.214Z,925.85
2017-04-05T00:54:38.597Z,925.83
2017-04-05T00:55:06.896Z,925.88
2017-04-05T00:55:35.303Z,925.85
2017-04-05T00:56:03.706Z,925.86
2017-04-05T00:56:31.972Z,925.86
2017-04-05T00:57:00.468Z,925.85
2017-04-05T00:57:28.899Z,925.84
2017-04-05T00:57:57.341Z,925.83
2017-04-05T00:58:25.718Z,925.87
2017-04-05T00:58:54.089Z,925.83
2017-04-05T00:59:22.568Z,925.84
2017-04-05T01:00:34.166Z,925.83
2017-04-05T01:01:02.542Z,925.82
2017-04-05T01:01:31.409Z,925.82
2017-04-05T01:01:59.904Z,925.86
2017-04-05T01:02:28.163Z,925.87
2017-04-05T01:02:56.526Z,925.86
2017-04-05T01:03:24.881Z,925.84
2017-04-05T01:03:53.315Z,925.86
2017-04-05T01:04:21.826Z,925.86
2017-04-05T01:04:50.271Z,925.86
2017-04-05T01:05:18.760Z,925.81
2017-04-05T01:06:30.306Z,925.83
2017-04-05T01:06:58.718Z,925.81
2017-04-05T01:07:27.187Z,925.83
2017-04-05T01:07:55.468Z,925.81
2017-04-05T01:08:23.812Z,925.84
2017-04-05T01:08:52.283Z,925.83
2017-04-05T01:09:20.679Z,925.83
2017-04-05T01:09:48.967Z,925.82
2017-04-05T01:10:17.418Z,925.82
2017-04-05T01:10:45.695Z,925.83
2017-04-05T01:11:13.998Z,925.85
2017-04-05T01:12:25.299Z,925.83
2017-04-05T01:12:53.861Z,925.83
2017-04-05T01:13:22.291Z,925.81
2017-04-05T01:13:50.674Z,925.85
2017-04-05T01:14:19.118Z,925.83
2017-04-05T01:14:47.817Z,925.8
2017-04-05T01:15:16.141Z,925.83
2017-04-05T01:15:44.498Z,925.83
2017-04-05T01:16:12.858Z,925.85
2017-04-05T01:16:41.284Z,925.81
2017-04-05T01:17:09.658Z,925.81
2017-04-05T01:18:21.002Z,925.82
2017-04-05T01:18:49.335Z,925.78
2017-04-05T01:19:17.740Z,925.81
2017-04-05T01:19:45.949Z,925.75
2017-04-05T01:20:14.144Z,925.74
2017-04-05T01:20:42.635Z,925.77
2017-04-05T01:21:10.900Z,925.79
2017-04-05T01:21:39.171Z,925.77
2017-04-05T01:22:07.441Z,925.76
2017-04-05T01:22:35.603Z,925.75
2017-04-05T01:23:03.875Z,925.79
2017-04-05T01:24:15.112Z,925.71
2017-04-05T01:24:43.272Z,925.76
2017-04-05T01:25:11.876Z,925.73
2017-04-05T01:25:40.395Z,925.75
2017-04-05T01:26:08.914Z,925.76
2017-04-05T01:26:37.573Z,925.75
2017-04-05T01:27:06.078Z,925.75
2017-04-05T01:27:34.475Z,925.75
2017-04-05T01:28:02.823Z,925.75
2017-04-05T01:28:31.362Z,925.73
2017-04-05T01:28:59.800Z,925.75
2017-04-05T01:30:11.334Z,925.77
2017-04-05T01:30:39.706Z,925.78
2017-04-05T01:31:08.499Z,925.76
2017-04-05T01:31:36.995Z,925.79
2017-04-05T01:32:05.678Z,925.83
2017-04-05T01:32:34.286Z,925.81
2017-04-05T01:33:02.839Z,925.81
2017-04-05T01:33:31.358Z,925.82
2017-04-05T01:33:59.811Z,925.8
2017-04-05T01:34:28.065Z,925.84
2017-04-05T01:34:56.561Z,925.82
2017-04-05T01:36:07.934Z,925.82
2017-04-05T01:36:37.017Z,925.83
2017-04-05T01:37:05.357Z,925.81
2017-04-05T01:37:33.761Z,925.83
2017-04-05T01:38:02.256Z,925.85
2017-04-05T01:38:30.770Z,925.81
2017-04-05T01:38:59.124Z,925.83
2017-04-05T01:39:27.515Z,925.82
2017-04-05T01:39:55.949Z,925.87
2017-04-05T01:40:24.298Z,925.85
2017-04-05T01:40:52.587Z,925.83
2017-04-05T01:42:04.091Z,925.83
2017-04-05T01:42:32.685Z,925.86
2017-04-05T01:43:01.114Z,925.85
2017-04-05T01:43:29.564Z,925.87
2017-04-05T01:43:58.072Z,925.87
2017-04-05T01:44:26.699Z,925.85
2017-04-05T01:44:55.060Z,925.87
2017-04-05T01:45:23.522Z,925.88
2017-04-05T01:45:52.026Z,925.85
2017-04-05T01:46:20.392Z,925.88
2017-04-05T01:46:48.873Z,925.87
2017-04-05T01:48:00.304Z,925.85
2017-04-05T01:48:28.682Z,925.84
2017-04-05T01:48:57.000Z,925.82
2017-04-05T01:49:25.399Z,925.8
2017-04-05T01:49:53.633Z,925.78
2017-04-05T01:50:22.055Z,925.8
2017-04-05T01:50:50.287Z,925.77
2017-04-05T01:51:18.711Z,925.77
2017-04-05T01:51:46.880Z,925.77
2017-04-05T01:52:15.208Z,925.75
2017-04-05T01:52:43.690Z,925.75
2017-04-05T01:53:55.204Z,925.75
2017-04-05T01:54:23.936Z,925.78
2017-04-05T01:54:52.276Z,925.74
2017-04-05T01:55:20.594Z,925.78
2017-04-05T01:55:49.302Z,925.75
2017-04-05T01:56:17.479Z,925.75
2017-04-05T01:56:45.641Z,925.73
2017-04-05T01:57:13.901Z,925.75
2017-04-05T01:57:42.262Z,925.72
2017-04-05T01:58:10.702Z,925.71
2017-04-05T01:58:38.979Z,925.72
2017-04-05T01:59:50.308Z,925.74
2017-04-05T02:00:18.647Z,925.72
2017-04-05T02:00:47.792Z,925.7
2017-04-05T02:01:16.081Z,925.7
2017-04-05T02:01:44.473Z,925.72
2017-04-05T02:02:12.939Z,925.71
2017-04-05T02:02:41.199Z,925.68
2017-04-05T02:03:09.555Z,925.7
2017-04-05T02:03:37.825Z,925.69
2017-04-05T02:04:06.245Z,925.68
2017-04-05T02:04:34.517Z,925.68
2017-04-05T02:05:45.848Z,925.74
2017-04-05T02:06:14.243Z,925.75
2017-04-05T02:06:42.587Z,925.71
2017-04-05T02:07:10.909Z,925.73
2017-04-05T02:07:39.292Z,925.72
2017-04-05T02:08:07.833Z,925.71
2017-04-05T02:08:36.085Z,925.7
2017-04-05T02:09:04.528Z,925.71
2017-04-05T02:09:32.921Z,925.73
2017-04-05T02:10:01.239Z,925.7
2017-04-05T02:10:29.643Z,925.7
2017-04-05T02:11:41.030Z,925.68
2017-04-05T02:12:09.291Z,925.69
2017-04-05T02:12:37.695Z,925.69
2017-04-05T02:13:05.953Z,925.65
2017-04-05T02:13:34.264Z,925.67
2017-04-05T02:14:02.616Z,925.65
2017-04-05T02:14:30.881Z,925.67
2017-04-05T02:14:59.151Z,925.64
2017-04-05T02:15:27.525Z,925.66
2017-04-05T02:15:55.843Z,925.65
2017-04-05T02:16:24.122Z,925.65
2017-04-05T02:17:35.398Z,925.62
2017-04-05T02:18:03.755Z,925.62
2017-04-05T02:18:32.053Z,925.6
2017-04-05T02:19:00.349Z,925.61
2017-04-05T02:19:28.746Z,925.61
2017-04-05T02:19:57.146Z,925.6
2017-04-05T02:20:25.441Z,925.59
2017-04-05T02:20:53.802Z,925.57
2017-04-05T02:21:22.107Z,925.55
2017-04-05T02:21:50.525Z,925.54
2017-04-05T02:22:18.921Z,925.55
2017-04-05T02:23:30.395Z,925.56
2017-04-05T02:23:58.937Z,925.51
2017-04-05T02:24:27.305Z,925.52
2017-04-05T02:24:55.481Z,925.55
2017-04-05T02:25:23.875Z,925.52
2017-04-05T02:25:52.330Z,925.53
2017-04-05T02:26:20.598Z,925.54
2017-04-05T02:26:48.965Z,925.54
2017-04-05T02:27:17.245Z,925.51
2017-04-05T02:27:45.434Z,925.51
2017-04-05T02:28:13.760Z,925.53
2017-04-05T02:29:25.054Z,925.53
2017-04-05T02:29:53.425Z,925.53
2017-04-05T02:30:21.648Z,925.53
2017-04-05T02:30:49.961Z,925.53
2017-04-05T02:31:18.380Z,925.48
2017-04-05T02:31:46.796Z,925.52
2017-04-05T02:32:15.191Z,925.5
2017-04-05T02:32:43.398Z,925.51
2017-04-05T02:33:11.714Z,925.51
2017-04-05T02:33:40.012Z,925.5
2017-04-05T02:34:08.432Z,925.53
2017-04-05T02:35:19.902Z,925.47
2017-04-05T02:35:47.980Z,925.51
2017-04-05T02:36:16.505Z,925.49
2017-04-05T02:36:44.735Z,925.51
2017-04-05T02:37:13.067Z,925.49
2017-04-05T02:37:41.254Z,925.49
2017-04-05T02:38:09.672Z,925.47
2017-04-05T02:38:38.109Z,925.48
2017-04-05T02:39:06.455Z,925.48
2017-04-05T02:39:34.738Z,925.46
2017-04-05T02:40:03.119Z,925.47
2017-04-05T02:41:15.334Z,925.45
2017-04-05T02:41:43.504Z,925.44
2017-04-05T02:42:12.262Z,925.48
2017-04-05T02:42:40.442Z,925.52
2017-04-05T02:43:09.047Z,925.43
2017-04-05T02:43:37.527Z,925.43
2017-04-05T02:44:05.785Z,925.42
2017-04-05T02:44:34.045Z,925.42
2017-04-05T02:45:02.326Z,925.45
2017-04-05T02:45:30.701Z,925.44
2017-04-05T02:45:59.067Z,925.41
2017-04-05T02:47:10.396Z,925.39
2017-04-05T02:47:38.728Z,925.39
2017-04-05T02:48:07.128Z,925.38
2017-04-05T02:48:35.377Z,925.38
2017-04-05T02:49:03.765Z,925.38
2017-04-05T02:49:32.187Z,925.35
2017-04-05T02:50:00.449Z,925.36
2017-04-05T02:50:28.526Z,925.32
2017-04-05T02:50:56.841Z,925.31
2017-04-05T02:51:25.206Z,925.34
2017-04-05T02:51:53.777Z,925.35
2017-04-05T02:53:05.263Z,925.33
2017-04-05T02:53:33.598Z,925.39
2017-04-05T02:54:01.997Z,925.34
2017-04-05T02:54:30.326Z,925.3
2017-04-05T02:54:58.710Z,925.34
2017-04-05T02:55:27.124Z,925.33
2017-04-05T02:55:55.386Z,925.34
2017-04-05T02:56:23.750Z,925.3
2017-04-05T02:56:51.944Z,925.32
2017-04-05T02:57:20.774Z,925.31
2017-04-05T02:57:48.950Z,925.31
2017-04-05T02:59:00.286Z,925.3
2017-04-05T02:59:28.634Z,925.33
2017-04-05T02:59:56.831Z,925.29
2017-04-05T03:00:25.067Z,925.33
2017-04-05T03:00:53.347Z,925.29
2017-04-05T03:01:21.758Z,925.32
2017-04-05T03:01:50.105Z,925.26
2017-04-05T03:02:18.369Z,925.28
2017-04-05T03:02:46.449Z,925.3
2017-04-05T03:03:14.724Z,925.28
2017-04-05T03:03:43.088Z,925.29
2017-04-05T03:04:54.516Z,925.26
2017-04-05T03:05:22.986Z,925.24
2017-04-05T03:05:51.376Z,925.27
2017-04-05T03:06:19.526Z,925.23
2017-04-05T03:06:47.812Z,925.22
2017-04-05T03:07:16.234Z,925.24
2017-04-05T03:07:44.589Z,925.22
2017-04-05T03:08:12.853Z,925.23
2017-04-05T03:08:41.214Z,925.25
2017-04-05T03:09:09.581Z,925.22
2017-04-05T03:09:37.989Z,925.25
2017-04-05T03:10:49.428Z,925.23
2017-04-05T03:11:17.759Z,925.25
2017-04-05T03:11:45.887Z,925.21
2017-04-05T03:12:14.125Z,925.18
2017-04-05T03:12:42.407Z,925.22
2017-04-05T03:13:10.826Z,925.2
2017-04-05T03:13:39.087Z,925.17
2017-04-05T03:14:07.356Z,925.18
2017-04-05T03:14:35.721Z,925.21
2017-04-05T03:15:03.811Z,925.17
2017-04-05T03:15:32.110Z,925.18
2017-04-05T03:16:43.533Z,925.19
2017-04-05T03:17:11.862Z,925.2
2017-04-05T03:17:40.230Z,925.2
2017-04-05T03:18:08.464Z,925.2
2017-04-05T03:18:36.748Z,925.19
2017-04-05T03:19:05.162Z,925.22
2017-04-05T03:19:33.509Z,925.17
2017-04-05T03:20:01.870Z,925.19
2017-04-05T03:20:30.231Z,925.19
2017-04-05T03:20:58.504Z,925.19
2017-04-05T03:21:26.868Z,925.15
2017-04-05T03:22:38.288Z,925.17
2017-04-05T03:23:06.617Z,925.18
2017-04-05T03:23:35.006Z,925.14
2017-04-05T03:24:03.334Z,925.16
2017-04-05T03:24:31.704Z,925.16
2017-04-05T03:25:00.025Z,925.15
2017-04-05T03:25:28.281Z,925.15
2017-04-05T03:25:56.542Z,925.17
2017-04-05T03:26:24.717Z,925.14
2017-04-05T03:26:52.898Z,925.17
2017-04-05T03:27:21.082Z,925.14
2017-04-05T03:28:32.503Z,925.15
2017-04-05T03:29:00.655Z,925.14
2017-04-05T03:29:28.856Z,925.11
2017-04-05T03:29:57.093Z,925.13
2017-04-05T03:30:25.369Z,925.14
2017-04-05T03:30:53.927Z,925.13
2017-04-05T03:31:22.189Z,925.17
2017-04-05T03:31:50.450Z,925.15
2017-04-05T03:32:18.714Z,925.14
2017-04-05T03:32:47.084Z,925.15
2017-04-05T03:33:15.257Z,925.16
2017-04-05T03:34:27.333Z,925.15
2017-04-05T03:34:56.428Z,925.17
2017-04-05T03:35:24.614Z,925.19
2017-04-05T03:35:53.202Z,925.17
2017-04-05T03:36:21.484Z,925.16
2017-04-05T03:36:49.807Z,925.14
2017-04-05T03:37:18.163Z,925.14
2017-04-05T03:37:46.524Z,925.19
2017-04-05T03:38:14.793Z,925.17
2017-04-05T03:38:43.072Z,925.17
2017-04-05T03:39:11.440Z,925.19
2017-04-05T03:40:22.861Z,925.2
2017-04-05T03:40:51.193Z,925.19
2017-04-05T03:41:19.588Z,925.24
2017-04-05T03:41:47.915Z,925.2
2017-04-05T03:42:16.198Z,925.18
2017-04-05T03:42:44.613Z,925.19
2017-04-05T03:43:12.872Z,925.2
2017-04-05T03:43:41.139Z,925.21
2017-04-05T03:44:09.497Z,925.18
2017-04-05T03:44:37.678Z,925.16
2017-04-05T03:45:06.046Z,925.15
2017-04-05T03:46:17.373Z,925.16
2017-04-05T03:46:45.521Z,925.11
2017-04-05T03:47:13.817Z,925.15
2017-04-05T03:47:42.147Z,925.14
2017-04-05T03:48:10.523Z,925.12
2017-04-05T03:48:38.836Z,925.12
2017-04-05T03:49:07.095Z,925.16
2017-04-05T03:49:35.454Z,925.12
2017-04-05T03:50:03.630Z,925.11
2017-04-05T03:50:31.907Z,925.13
2017-04-05T03:51:00.176Z,925.14
2017-04-05T03:52:11.407Z,925.12
2017-04-05T03:52:39.652Z,925.12
2017-04-05T03:53:07.844Z,925.16
2017-04-05T03:53:35.979Z,925.13
2017-04-05T03:54:04.265Z,925.15
2017-04-05T03:54:32.574Z,925.15
2017-04-05T03:55:00.738Z,925.17
2017-04-05T03:55:29.098Z,925.19
2017-04-05T03:55:57.361Z,925.15
2017-04-05T03:56:25.732Z,925.15
2017-04-05T03:56:53.915Z,925.17
2017-04-05T03:58:05.151Z,925.2
2017-04-05T03:58:33.487Z,925.17
2017-04-05T03:59:01.753Z,925.21
2017-04-05T03:59:29.982Z,925.17
2017-04-05T03:59:58.268Z,925.2
2017-04-05T04:00:26.679Z,925.18
2017-04-05T04:00:54.936Z,925.22
2017-04-05T04:01:23.112Z,925.2
2017-04-05T04:01:51.379Z,925.18
2017-04-05T04:02:19.464Z,925.21
2017-04-05T04:02:47.832Z,925.22
2017-04-05T04:03:59.154Z,925.17
2017-04-05T04:04:27.299Z,925.18
2017-04-05T04:04:55.570Z,925.2
2017-04-05T04:05:23.800Z,925.18
2017-04-05T04:05:52.374Z,925.15
2017-04-05T04:06:20.689Z,925.16
2017-04-05T04:06:49.041Z,925.17
2017-04-05T04:07:17.310Z,925.13
2017-04-05T04:07:45.475Z,925.14
2017-04-05T04:08:13.737Z,925.14
2017-04-05T04:08:42.096Z,925.15
2017-04-05T04:09:53.419Z,925.14
2017-04-05T04:10:21.743Z,925.16
2017-04-05T04:10:50.052Z,925.17
2017-04-05T04:11:18.002Z,925.18
2017-04-05T04:11:46.371Z,925.14
2017-04-05T04:12:14.687Z,925.15
2017-04-05T04:12:42.845Z,925.12
2017-04-05T04:13:10.927Z,925.1
2017-04-05T04:13:39.286Z,925.14
2017-04-05T04:14:07.455Z,925.12
2017-04-05T04:14:35.719Z,925.11
2017-04-05T04:15:47.043Z,925.06
2017-04-05T04:16:15.365Z,925.06
2017-04-05T04:16:43.653Z,925.05
2017-04-05T04:17:11.795Z,925.03
2017-04-05T04:17:40.067Z,925.04
2017-04-05T04:18:08.286Z,925.03
2017-04-05T04:18:36.546Z,925.03
2017-04-05T04:19:04.877Z,925.05
2017-04-05T04:19:33.024Z,925.02
2017-04-05T04:20:01.200Z,925.01
2017-04-05T04:20:29.367Z,925.03
2017-04-05T04:21:40.597Z,925.03
2017-04-05T04:22:08.736Z,925.04
2017-04-05T04:22:37.079Z,924.98
2017-04-05T04:23:05.313Z,924.97
2017-04-05T04:23:33.494Z,924.98
2017-04-05T04:24:01.809Z,924.96
2017-04-05T04:24:30.066Z,924.96
2017-04-05T04:24:58.340Z,924.94
2017-04-05T04:25:26.618Z,924.92
2017-04-05T04:25:54.979Z,924.93
2017-04-05T04:26:23.332Z,924.92
2017-04-05T04:27:34.750Z,924.93
2017-04-05T04:28:02.980Z,924.91
2017-04-05T04:28:31.366Z,924.92
2017-04-05T04:28:59.687Z,924.89
2017-04-05T04:29:28.063Z,924.89
2017-04-05T04:29:56.468Z,924.95
2017-04-05T04:30:24.627Z,924.89
2017-04-05T04:30:52.997Z,924.9
2017-04-05T04:31:21.352Z,924.91
2017-04-05T04:31:49.441Z,924.91
2017-04-05T04:32:17.710Z,924.92
2017-04-05T04:33:29.126Z,924.93
2017-04-05T04:33:57.608Z,924.93
2017-04-05T04:34:25.874Z,924.89
2017-04-05T04:34:54.009Z,924.92
2017-04-05T04:35:22.309Z,924.9
2017-04-05T04:35:50.622Z,924.9
2017-04-05T04:36:18.784Z,924.89
2017-04-05T04:36:47.051Z,924.88
2017-04-05T04:37:15.408Z,924.88
2017-04-05T04:37:43.768Z,924.89
2017-04-05T04:38:12.119Z,924.81
2017-04-05T04:39:23.448Z,924.83
2017-04-05T04:39:51.772Z,924.81
2017-04-05T04:40:20.176Z,924.8
2017-04-05T04:40:48.406Z,924.81
2017-04-05T04:41:16.689Z,924.76
2017-04-05T04:41:45.000Z,924.76
2017-04-05T04:42:13.349Z,924.72
2017-04-05T04:42:41.716Z,924.73
2017-04-05T04:43:10.067Z,924.71
2017-04-05T04:43:38.358Z,924.73
2017-04-05T04:44:06.720Z,924.69
2017-04-05T04:45:18.040Z,924.73
2017-04-05T04:45:46.291Z,924.71
2017-04-05T04:46:14.573Z,924.71
2017-04-05T04:46:42.895Z,924.66
2017-04-05T04:47:11.175Z,924.69
2017-04-05T04:47:39.587Z,924.67
2017-04-05T04:48:07.846Z,924.68
2017-04-05T04:48:36.200Z,924.67
2017-04-05T04:49:04.276Z,924.72
2017-04-05T04:49:32.663Z,924.65
2017-04-05T04:50:01.028Z,924.68
2017-04-05T04:51:12.260Z,924.68
2017-04-05T04:51:40.612Z,924.67
2017-04-05T04:52:08.864Z,924.7
2017-04-05T04:52:37.192Z,924.69
2017-04-05T04:53:05.562Z,924.66
2017-04-05T04:53:33.976Z,924.69
2017-04-05T04:54:02.236Z,924.67
2017-04-05T04:54:30.591Z,924.63
2017-04-05T04:54:58.948Z,924.65
2017-04-05T04:55:27.324Z,924.63
2017-04-05T04:55:55.600Z,924.63
2017-04-05T04:57:06.918Z,924.67
2017-04-05T04:57:35.183Z,924.64
2017-04-05T04:58:03.534Z,924.62
2017-04-05T04:58:31.894Z,924.61
2017-04-05T04:59:00.276Z,924.59
2017-04-05T04:59:28.679Z,924.6
2017-04-05T04:59:56.989Z,924.58
2017-04-05T05:00:25.312Z,924.58
2017-04-05T05:00:53.368Z,924.6
2017-04-05T05:01:21.653Z,924.59
2017-04-05T05:01:50.023Z,924.57
2017-04-05T05:03:01.250Z,924.55
2017-04-05T05:03:29.595Z,924.52
2017-04-05T05:03:57.949Z,924.53
2017-04-05T05:04:26.304Z,924.49
2017-04-05T05:04:54.686Z,924.5
2017-04-05T05:05:23.086Z,924.49
2017-04-05T05:05:51.481Z,924.5
2017-04-05T05:06:19.713Z,924.47
2017-04-05T05:06:47.957Z,924.48
2017-04-05T05:07:16.340Z,924.52
2017-04-05T05:07:44.615Z,924.51
2017-04-05T05:08:55.839Z,924.52
2017-04-05T05:09:24.090Z,924.53
2017-04-05T05:09:52.247Z,924.55
2017-04-05T05:10:20.423Z,924.52
2017-04-05T05:10:48.715Z,924.51
2017-04-05T05:11:17.116Z,924.53
2017-04-05T05:11:45.514Z,924.53
2017-04-05T05:12:13.738Z,924.51
2017-04-05T05:12:41.889Z,924.5
2017-04-05T05:13:10.263Z,924.51
2017-04-05T05:13:38.540Z,924.5
2017-04-05T05:14:49.858Z,924.47
2017-04-05T05:15:18.202Z,924.49
2017-04-05T05:15:46.448Z,924.48
2017-04-05T05:16:14.802Z,924.51
2017-04-05T05:16:43.005Z,924.49
2017-04-05T05:17:11.294Z,924.49
2017-04-05T05:17:39.647Z,924.47
2017-04-05T05:18:07.901Z,924.46
2017-04-05T05:18:35.948Z,924.45
2017-04-05T05:19:04.216Z,924.49
2017-04-05T05:19:32.533Z,924.48
2017-04-05T05:20:43.772Z,924.46
2017-04-05T05:21:11.960Z,924.46
2017-04-05T05:21:40.127Z,924.46
2017-04-05T05:22:08.415Z,924.44
2017-04-05T05:22:36.644Z,924.44
2017-04-05T05:23:04.890Z,924.46
2017-04-05T05:23:33.026Z,924.48
2017-04-05T05:24:01.309Z,924.49
2017-04-05T05:24:29.480Z,924.46
2017-04-05T05:24:57.712Z,924.51
2017-04-05T05:25:25.969Z,924.51
2017-04-05T05:26:37.402Z,924.5
2017-04-05T05:27:05.652Z,924.46
2017-04-05T05:27:33.970Z,924.51
2017-04-05T05:28:02.217Z,924.5
2017-04-05T05:28:30.572Z,924.51
2017-04-05T05:28:58.886Z,924.49
2017-04-05T05:29:27.252Z,924.5
2017-04-05T05:29:55.510Z,924.5
2017-04-05T05:30:23.858Z,924.47
2017-04-05T05:30:52.165Z,924.48
2017-04-05T05:31:20.349Z,924.45
2017-04-05T05:32:31.771Z,924.49
2017-04-05T05:32:59.994Z,924.48
2017-04-05T05:33:28.152Z,924.45
2017-04-05T05:33:56.402Z,924.45
2017-04-05T05:34:24.776Z,924.44
2017-04-05T05:34:53.091Z,924.45
2017-04-05T05:35:21.368Z,924.47
2017-04-05T05:35:49.626Z,924.46
2017-04-05T05:36:17.874Z,924.49
2017-04-05T05:36:46.273Z,924.45
2017-04-05T05:37:14.547Z,924.46
2017-04-05T05:38:25.972Z,924.46
2017-04-05T05:38:54.293Z,924.45
2017-04-05T05:39:22.635Z,924.46
2017-04-05T05:39:50.977Z,924.48
2017-04-05T05:40:19.262Z,924.46
2017-04-05T05:40:47.669Z,924.45
2017-04-05T05:41:16.037Z,924.44
2017-04-05T05:41:44.294Z,924.45
2017-04-05T05:42:12.456Z,924.45
2017-04-05T05:42:40.662Z,924.41
2017-04-05T05:43:09.021Z,924.42
2017-04-05T05:44:20.349Z,924.42
2017-04-05T05:44:48.582Z,924.44
2017-04-05T05:45:16.923Z,924.4
2017-04-05T05:45:45.170Z,924.42
2017-04-05T05:46:13.539Z,924.42
2017-04-05T05:46:41.858Z,924.42
2017-04-05T05:47:10.129Z,924.37
2017-04-05T05:47:38.483Z,924.4
2017-04-05T05:48:06.736Z,924.42
2017-04-05T05:48:35.042Z,924.42
2017-04-05T05:49:03.315Z,924.37
2017-04-05T05:50:14.645Z,924.34
2017-04-05T05:50:42.878Z,924.39
2017-04-05T05:51:11.213Z,924.38
2017-04-05T05:51:39.463Z,924.38
2017-04-05T05:52:07.740Z,924.41
2017-04-05T05:52:36.153Z,924.39
2017-04-05T05:53:04.517Z,924.42
2017-04-05T05:53:32.865Z,924.42
2017-04-05T05:54:01.206Z,924.38
2017-04-05T05:54:29.602Z,924.39
2017-04-05T05:54:57.779Z,924.34
2017-04-05T05:56:09.123Z,924.38
2017-04-05T05:56:37.446Z,924.34
2017-04-05T05:57:05.693Z,924.34
2017-04-05T05:57:34.033Z,924.39
2017-04-05T05:58:02.223Z,924.32
2017-04-05T05:58:30.634Z,924.3
2017-04-05T05:58:59.002Z,924.36
2017-04-05T05:59:27.356Z,924.31
2017-04-05T05:59:55.618Z,924.32
2017-04-05T06:00:23.831Z,924.31
2017-04-05T06:00:52.103Z,924.34
2017-04-05T06:02:03.433Z,924.34
2017-04-05T06:02:31.658Z,924.33
2017-04-05T06:03:00.000Z,924.36
2017-04-05T06:03:28.066Z,924.35
2017-04-05T06:03:56.441Z,924.37
2017-04-05T06:04:24.752Z,924.37
2017-04-05T06:04:53.121Z,924.37
2017-04-05T06:05:21.285Z,924.37
2017-04-05T06:05:49.625Z,924.37
2017-04-05T06:06:18.025Z,924.36
2017-04-05T06:06:46.295Z,924.35
2017-04-05T06:07:57.716Z,924.39
2017-04-05T06:08:26.036Z,924.4
2017-04-05T06:08:54.191Z,924.34
2017-04-05T06:09:22.533Z,924.35
2017-04-05T06:09:50.807Z,924.35
2017-04-05T06:10:19.127Z,924.37
2017-04-05T06:10:47.490Z,924.35
2017-04-05T06:11:15.747Z,924.37
2017-04-05T06:11:44.095Z,924.35
2017-04-05T06:12:12.305Z,924.39
2017-04-05T06:12:40.578Z,924.34
2017-04-05T06:13:51.910Z,924.36
2017-04-05T06:14:20.232Z,924.34
2017-04-05T06:14:48.389Z,924.33
2017-04-05T06:15:16.731Z,924.31
2017-04-05T06:15:45.106Z,924.34
2017-04-05T06:16:13.420Z,924.32
2017-04-05T06:16:41.778Z,924.32
2017-04-05T06:17:10.032Z,924.32
2017-04-05T06:17:38.283Z,924.34
2017-04-05T06:18:06.682Z,924.31
2017-04-05T06:18:34.953Z,924.31
2017-04-05T06:19:46.285Z,924.31
2017-04-05T06:20:14.606Z,924.29
2017-04-05T06:20:42.854Z,924.28
2017-04-05T06:21:11.104Z,924.25
2017-04-05T06:21:39.386Z,924.28
2017-04-05T06:22:07.707Z,924.28
2017-04-05T06:22:36.065Z,924.3
2017-04-05T06:23:04.773Z,924.29
2017-04-05T06:23:32.927Z,924.29
2017-04-05T06:24:01.136Z,924.29
2017-04-05T06:24:29.408Z,924.29
2017-04-05T06:25:40.739Z,924.28
2017-04-05T06:26:09.062Z,924.27
2017-04-05T06:26:37.212Z,924.29
2017-04-05T06:27:05.549Z,924.26
2017-04-05T06:27:33.919Z,924.29
2017-04-05T06:28:02.238Z,924.27
2017-04-05T06:28:30.602Z,924.25
2017-04-05T06:28:58.858Z,924.25
2017-04-05T06:29:27.203Z,924.24
2017-04-05T06:29:55.509Z,924.23
2017-04-05T06:30:23.779Z,924.24
2017-04-05T06:31:35.205Z,924.21
2017-04-05T06:32:03.427Z,924.22
2017-04-05T06:32:31.402Z,924.23
2017-04-05T06:32:59.649Z,924.19
2017-04-05T06:33:27.930Z,924.18
2017-04-05T06:33:56.340Z,924.15
2017-04-05T06:34:24.605Z,924.16
2017-04-05T06:34:52.859Z,924.13
2017-04-05T06:35:21.126Z,924.15
2017-04-05T06:35:49.510Z,924.18
2017-04-05T06:36:17.786Z,924.17
2017-04-05T06:37:29.208Z,924.17
2017-04-05T06:37:57.529Z,924.13
2017-04-05T06:38:25.685Z,924.13
2017-04-05T06:38:53.937Z,924.14
2017-04-05T06:39:22.224Z,924.16
2017-04-05T06:39:50.635Z,924.13
2017-04-05T06:40:18.904Z,924.18
2017-04-05T06:40:47.255Z,924.15
2017-04-05T06:41:15.508Z,924.2
2017-04-05T06:41:43.909Z,924.18
2017-04-05T06:42:12.181Z,924.17
2017-04-05T06:43:23.512Z,924.17
2017-04-05T06:43:51.739Z,924.16